Time;durP1;ratioP1;P1;durP2;ratioP2;P2;SDS_P1;SDS_P2;PMS_P1;PMS_P2;Temp;Humidity;BMP_temperature;BMP_pressure;BME280_temperature;BME280_humidity;BME280_pressure;Samples;Min_cycle;Max_cycle;Signal;HPM_P1;HPM_P2
2022/08/03 00:01:00;;;;;;;11.18;3.85;;;;;;;22.55;66.70;101433.47;4995138;28;20034;-68
2022/08/03 00:03:25;;;;;;;8.85;3.33;;;;;;;22.46;66.66;101427.44;4994727;28;20171;-68
2022/08/03 00:05:50;;;;;;;12.75;3.88;;;;;;;22.38;66.78;101431.28;4994748;28;20551;-67
2022/08/03 00:08:16;;;;;;;10.52;3.60;;;;;;;22.23;67.76;101429.91;4994886;28;20042;-68
2022/08/03 00:10:41;;;;;;;7.97;3.47;;;;;;;22.30;67.41;101434.19;4994917;28;20038;-68
2022/08/03 00:13:07;;;;;;;10.30;3.47;;;;;;;22.17;67.64;101432.75;4994923;28;20379;-68
2022/08/03 00:15:32;;;;;;;9.70;3.75;;;;;;;22.06;67.97;101427.66;4994693;28;20030;-67
2022/08/03 00:17:58;;;;;;;8.32;3.33;;;;;;;22.06;67.79;101424.97;4994655;28;20357;-68
2022/08/03 00:20:23;;;;;;;9.48;3.60;;;;;;;22.03;67.85;101429.53;4977319;28;20038;-67
2022/08/03 00:22:49;;;;;;;9.85;3.58;;;;;;;21.86;68.12;101427.31;4994729;28;20469;-67
2022/08/03 00:25:15;;;;;;;9.15;3.50;;;;;;;21.79;68.55;101425.69;4994486;28;20068;-68
2022/08/03 00:27:41;;;;;;;9.32;3.50;;;;;;;21.76;69.11;101426.69;4994557;28;20034;-67
2022/08/03 00:30:07;;;;;;;9.68;4.10;;;;;;;21.62;69.98;101428.81;4994709;28;20026;-68
2022/08/03 00:32:32;;;;;;;10.07;3.58;;;;;;;21.54;70.06;101425.44;4994076;28;20057;-67
2022/08/03 00:34:57;;;;;;;8.82;3.33;;;;;;;21.56;69.38;101424.50;4977187;28;20480;-67
2022/08/03 00:37:23;;;;;;;11.82;4.00;;;;;;;21.53;69.62;101421.00;4994423;28;20034;-68
2022/08/03 00:39:48;;;;;;;8.43;4.03;;;;;;;21.50;69.90;101422.84;4994546;28;20492;-67
2022/08/03 00:42:14;;;;;;;13.77;4.65;;;;;;;21.35;70.38;101414.28;4994105;28;20038;-67
2022/08/03 00:44:41;;;;;;;9.95;4.63;;;;;;;21.32;70.67;101417.91;4994469;28;20119;-68
2022/08/03 00:47:09;;;;;;;8.43;4.30;;;;;;;21.30;70.17;101408.09;4993888;28;20476;-67
2022/08/03 00:49:38;;;;;;;8.23;3.83;;;;;;;21.24;70.88;101414.50;4994167;28;20042;-68
2022/08/03 00:52:03;;;;;;;7.80;3.80;;;;;;;21.29;70.67;101403.66;4994130;28;20396;-69
2022/08/03 00:54:29;;;;;;;9.13;3.63;;;;;;;21.16;71.48;101416.50;4994169;28;20488;-68
2022/08/03 00:56:55;;;;;;;10.52;3.60;;;;;;;21.25;70.72;101411.78;4993078;28;20166;-68
2022/08/03 00:59:21;;;;;;;6.55;3.35;;;;;;;21.29;70.61;101409.91;4993974;28;20081;-68
2022/08/03 01:01:47;;;;;;;11.57;3.60;;;;;;;21.39;70.23;101411.47;4993983;28;20500;-68
2022/08/03 01:04:12;;;;;;;8.88;3.67;;;;;;;21.36;70.36;101407.97;4993847;28;20097;-68
2022/08/03 01:06:51;;;;;;;9.80;3.28;;;;;;;21.34;69.93;101415.22;4993820;28;20034;-68
2022/08/03 01:09:30;;;;;;;9.85;3.50;;;;;;;21.20;70.23;101394.91;4994065;28;20113;-68
2022/08/03 01:12:08;;;;;;;6.50;3.10;;;;;;;21.09;70.66;101409.50;4993825;28;20046;-68
2022/08/03 01:14:46;;;;;;;10.38;3.40;;;;;;;21.05;70.61;101407.81;4993604;28;20074;-69
2022/08/03 01:17:30;;;;;;;9.25;3.35;;;;;;;21.04;71.10;101409.63;4993799;28;20038;-68
2022/08/03 01:20:01;;;;;;;8.45;3.35;;;;;;;21.18;70.40;101403.91;4993777;28;20045;-68
2022/08/03 01:22:46;;;;;;;8.23;3.63;;;;;;;21.26;70.30;101400.09;4994020;28;20030;-68
2022/08/03 01:25:27;;;;;;;11.95;3.30;;;;;;;21.37;69.45;101399.88;4974212;28;20485;-67
2022/08/03 01:27:55;;;;;;;11.33;3.40;;;;;;;21.35;69.32;101395.47;4974693;28;20678;-68
2022/08/03 01:30:27;;;;;;;6.57;3.30;;;;;;;21.30;69.72;101398.22;4974170;28;20390;-68
2022/08/03 01:33:20;;;;;;;8.23;3.40;;;;;;;21.30;69.20;101390.16;4974055;28;20027;-68
2022/08/03 01:35:51;;;;;;;6.63;3.40;;;;;;;21.10;70.79;101397.81;4970239;28;20109;-68
2022/08/03 01:38:31;;;;;;;8.32;3.20;;;;;;;21.06;70.80;101394.31;4974417;28;20057;-68
2022/08/03 01:41:03;;;;;;;6.13;3.10;;;;;;;21.00;70.84;101397.16;4974710;28;20034;-68
2022/08/03 01:43:29;;;;;;;9.85;3.20;;;;;;;20.92;71.28;101400.03;4974062;28;20468;-68
2022/08/03 01:45:56;;;;;;;6.70;3.10;;;;;;;20.83;71.56;101396.69;4974010;28;20481;-68
2022/08/03 01:48:23;;;;;;;9.10;3.45;;;;;;;20.81;71.50;101396.69;4974515;28;20027;-68
2022/08/03 01:50:50;;;;;;;7.78;3.08;;;;;;;20.88;71.24;101392.06;4974103;28;20018;-68
2022/08/03 01:53:18;;;;;;;9.93;3.20;;;;;;;20.81;71.70;101387.75;4974387;28;20027;-67
2022/08/03 01:55:47;;;;;;;9.45;3.53;;;;;;;20.92;71.61;101388.41;4973947;28;20543;-68
2022/08/03 01:58:15;;;;;;;7.18;3.17;;;;;;;21.01;70.65;101388.19;4973931;28;20026;-68
2022/08/03 02:00:42;;;;;;;9.30;3.60;;;;;;;21.05;70.62;101387.19;4973989;28;20034;-68
2022/08/03 02:03:11;;;;;;;8.25;3.47;;;;;;;21.09;70.61;101390.69;4973829;28;20050;-68
2022/08/03 02:05:38;;;;;;;9.10;3.67;;;;;;;20.96;71.24;101393.66;4973864;28;20027;-68
2022/08/03 02:08:06;;;;;;;9.15;3.40;;;;;;;20.92;70.78;101391.09;4974261;28;20038;-68
2022/08/03 02:10:33;;;;;;;7.90;3.15;;;;;;;20.82;70.92;101390.44;4973803;28;20026;-68
2022/08/03 02:13:01;;;;;;;10.30;3.60;;;;;;;20.70;71.26;101386.22;4973920;28;20088;-68
2022/08/03 02:15:29;;;;;;;10.25;3.65;;;;;;;20.61;71.81;101391.78;4973933;28;20090;-67
2022/08/03 02:17:56;;;;;;;11.35;3.40;;;;;;;20.45;72.39;101377.78;4973874;28;20110;-68
2022/08/03 02:20:22;;;;;;;8.32;3.42;;;;;;;20.50;72.23;101385.75;4973824;28;20027;-67
2022/08/03 02:22:48;;;;;;;6.70;3.90;;;;;;;20.41;72.66;101388.63;4973632;28;20470;-68
2022/08/03 02:25:15;;;;;;;11.13;3.00;;;;;;;20.45;72.22;101380.47;4992904;28;20030;-69
2022/08/03 02:28:11;;;;;;;9.07;3.25;;;;;;;20.48;72.22;101387.59;4995644;28;20030;-68
2022/08/03 02:30:39;;;;;;;8.10;3.10;;;;;;;20.38;72.63;101385.97;4995635;28;20081;-68
2022/08/03 02:33:14;;;;;;;7.57;3.20;;;;;;;20.30;73.06;101387.94;4996678;28;20035;-68
2022/08/03 02:35:42;;;;;;;4.88;2.90;;;;;;;20.21;73.34;101387.25;4996612;28;20027;-67
2022/08/03 02:38:10;;;;;;;6.20;3.20;;;;;;;20.21;73.17;101375.59;4996646;28;20027;-68
2022/08/03 02:40:38;;;;;;;8.77;3.30;;;;;;;20.17;74.04;101379.25;4996687;28;20109;-68
2022/08/03 02:43:17;;;;;;;10.45;3.78;;;;;;;20.11;74.11;101387.44;4996623;28;20081;-68
2022/08/03 02:45:46;;;;;;;9.38;3.47;;;;;;;20.08;74.68;101379.44;4996619;28;20109;-67
2022/08/03 02:48:16;;;;;;;7.10;3.30;;;;;;;19.99;75.14;101377.84;4996410;28;20029;-67
2022/08/03 02:50:43;;;;;;;7.15;3.13;;;;;;;19.89;75.24;101377.13;4996567;28;20026;-68
2022/08/03 02:53:10;;;;;;;9.02;3.30;;;;;;;19.89;75.13;101384.31;4996407;28;20029;-68
2022/08/03 02:55:36;;;;;;;7.03;3.20;;;;;;;19.85;75.23;101377.22;4996268;28;20038;-68
2022/08/03 02:58:03;;;;;;;9.98;3.28;;;;;;;19.86;74.60;101379.00;4996421;28;20138;-68
2022/08/03 03:00:32;;;;;;;7.53;2.90;;;;;;;19.85;74.92;101374.53;4996227;28;20037;-68
2022/08/03 03:02:59;;;;;;;8.80;2.90;;;;;;;19.84;75.02;101383.50;4996052;28;20018;-68
2022/08/03 03:05:24;;;;;;;9.30;3.50;;;;;;;19.88;74.97;101374.50;4996102;28;20472;-68
2022/08/03 03:07:50;;;;;;;8.63;3.58;;;;;;;19.92;75.72;101378.88;4996193;28;20110;-68
2022/08/03 03:10:16;;;;;;;7.85;3.67;;;;;;;19.99;74.69;101373.34;4996058;28;20168;-68
2022/08/03 03:12:42;;;;;;;7.55;3.30;;;;;;;19.97;74.11;101377.88;4996013;28;20540;-68
2022/08/03 03:15:07;;;;;;;7.00;3.58;;;;;;;20.02;74.57;101373.28;4995926;28;20022;-67
2022/08/03 03:17:36;;;;;;;8.98;3.70;;;;;;;20.05;74.68;101374.16;4996056;28;20456;-68
2022/08/03 03:20:03;;;;;;;7.50;3.47;;;;;;;20.07;74.52;101380.38;4995966;28;20023;-68
2022/08/03 03:22:31;;;;;;;16.35;4.40;;;;;;;20.10;75.68;101383.00;4995889;28;20027;-68
2022/08/03 03:24:57;;;;;;;9.82;3.90;;;;;;;20.16;75.52;101382.88;4995699;28;20034;-68
2022/08/03 03:27:23;;;;;;;12.45;4.13;;;;;;;20.15;76.08;101373.94;4978259;28;20041;-68
2022/08/03 03:29:49;;;;;;;12.35;4.32;;;;;;;20.12;76.46;101373.09;4995763;28;20058;-68
2022/08/03 03:32:14;;;;;;;11.52;3.90;;;;;;;20.21;76.04;101365.78;4995525;28;20058;-68
2022/08/03 03:34:41;;;;;;;11.93;4.07;;;;;;;20.14;76.54;101368.63;4995576;28;20031;-67
2022/08/03 03:37:07;;;;;;;11.85;4.00;;;;;;;20.19;76.13;101372.06;4995270;28;20455;-69
2022/08/03 03:39:32;;;;;;;12.43;4.10;;;;;;;20.19;76.24;101375.63;4995496;28;20046;-68
2022/08/03 03:41:59;;;;;;;10.82;3.78;;;;;;;20.15;76.28;101373.06;4995671;28;20476;-68
2022/08/03 03:44:28;;;;;;;13.90;3.90;;;;;;;20.12;76.39;101378.47;4995331;28;20026;-68
2022/08/03 03:46:57;;;;;;;11.13;3.90;;;;;;;20.17;75.78;101376.56;4995373;28;20109;-69
2022/08/03 03:49:22;;;;;;;12.50;3.90;;;;;;;20.10;76.05;101380.31;4995308;28;20022;-68
2022/08/03 03:51:51;;;;;;;10.00;4.22;;;;;;;20.07;76.08;101378.56;4995344;28;20511;-69
2022/08/03 03:54:16;;;;;;;10.68;3.88;;;;;;;20.11;76.12;101376.72;4995348;28;20392;-68
2022/08/03 03:56:41;;;;;;;13.02;3.72;;;;;;;20.04;75.70;101375.06;4995189;28;20031;-68
2022/08/03 03:59:07;;;;;;;13.35;4.18;;;;;;;20.04;75.30;101372.38;4993890;28;20379;-69
2022/08/03 04:01:32;;;;;;;11.02;3.83;;;;;;;20.06;75.88;101370.56;4995256;28;20387;-69
2022/08/03 04:10:57;;;;;;;6.07;3.55;;;;;;;20.11;75.38;101376.72;4995071;28;20026;-68
2022/08/03 04:12:11;;;;;;;9.27;3.70;;;;;;;19.91;74.84;101367.28;4995375;28;20041;-68
2022/08/03 04:14:39;;;;;;;13.38;3.88;;;;;;;19.87;75.59;101375.38;4995022;28;20027;-68
2022/08/03 04:17:08;;;;;;;10.70;4.00;;;;;;;19.88;76.04;101370.00;4994941;28;20031;-68
2022/08/03 04:19:46;;;;;;;12.52;3.55;;;;;;;19.90;75.29;101370.84;4994652;28;20485;-68
2022/08/03 04:22:16;;;;;;;14.77;3.88;;;;;;;19.96;75.67;101378.78;4994831;28;20030;-68
2022/08/03 04:25:04;;;;;;;9.32;3.90;;;;;;;20.05;74.09;101375.03;4977122;28;20628;-69
2022/08/03 04:27:35;;;;;;;14.13;3.70;;;;;;;20.04;74.69;101369.69;4994670;28;20035;-68
2022/08/03 04:30:04;;;;;;;8.40;3.38;;;;;;;20.07;73.69;101383.94;4977788;28;20113;-68
2022/08/03 04:32:30;;;;;;;8.00;3.47;;;;;;;20.02;73.62;101370.63;4994116;28;20380;-68
2022/08/03 04:34:56;;;;;;;8.27;3.53;;;;;;;19.97;73.91;101377.00;4994547;28;20028;-69
2022/08/03 04:37:38;;;;;;;11.70;3.53;;;;;;;20.01;73.33;101386.75;4994465;28;20027;-68
2022/08/03 04:40:08;;;;;;;11.57;3.80;;;;;;;19.96;74.73;101383.28;4994497;28;20030;-69
2022/08/03 04:42:36;;;;;;;8.15;3.53;;;;;;;19.90;75.37;101373.53;4994389;28;20041;-68
2022/08/03 04:45:03;;;;;;;12.38;3.80;;;;;;;19.95;75.57;101371.63;4994086;28;20041;-69
2022/08/03 04:51:47;;;;;;;8.90;3.70;;;;;;;20.05;75.39;101380.41;4993881;28;20049;-68
2022/08/03 04:54:14;;;;;;;10.30;3.47;;;;;;;20.02;76.06;101378.66;4994355;28;20066;-68
2022/08/03 04:56:40;;;;;;;10.95;3.65;;;;;;;19.98;75.92;101385.00;4994130;28;20026;-68
2022/08/03 04:59:06;;;;;;;9.30;3.50;;;;;;;20.04;75.79;101396.53;4994388;28;20113;-68
2022/08/03 05:01:31;;;;;;;10.93;3.65;;;;;;;20.11;75.60;101399.06;4993911;28;20109;-69
2022/08/03 05:03:57;;;;;;;16.65;4.05;;;;;;;20.10;75.86;101394.63;4993899;28;20046;-68
2022/08/03 05:06:22;;;;;;;8.00;3.60;;;;;;;20.15;75.52;101398.09;4993944;28;20030;-67
2022/08/03 05:08:48;;;;;;;9.60;3.60;;;;;;;20.28;75.07;101398.72;4994045;28;20026;-68
2022/08/03 05:11:15;;;;;;;14.55;4.45;;;;;;;20.42;75.14;101402.00;4994140;28;20029;-68
2022/08/03 05:13:40;;;;;;;14.88;4.18;;;;;;;20.58;74.56;101401.72;4993842;28;20105;-68
2022/08/03 05:16:06;;;;;;;12.52;4.05;;;;;;;20.67;74.54;101402.38;4993769;28;20162;-70
2022/08/03 05:18:31;;;;;;;11.13;3.70;;;;;;;20.86;73.53;101404.69;4993855;28;20027;-69
2022/08/03 05:20:57;;;;;;;12.55;3.97;;;;;;;20.93;73.79;101412.53;4993858;28;20455;-69
2022/08/03 05:23:22;;;;;;;16.85;4.40;;;;;;;21.14;73.17;101411.16;4993536;28;20046;-68
2022/08/03 05:25:47;;;;;;;15.20;4.38;;;;;;;21.28;72.73;101413.50;4993596;28;20033;-68
2022/08/03 05:28:13;;;;;;;13.95;4.50;;;;;;;21.30;72.48;101406.28;4993729;28;20037;-67
2022/08/03 05:30:38;;;;;;;10.45;4.30;;;;;;;21.29;72.82;101409.03;4993635;28;20045;-68
2022/08/03 05:33:03;;;;;;;14.05;4.05;;;;;;;21.29;72.59;101403.66;4976335;28;20026;-68
2022/08/03 05:35:30;;;;;;;10.65;3.97;;;;;;;21.39;72.63;101410.59;4993696;28;20026;-67
2022/08/03 05:37:56;;;;;;;15.20;3.90;;;;;;;21.43;72.06;101414.97;4993625;28;20479;-68
2022/08/03 05:40:22;;;;;;;7.75;3.40;;;;;;;21.59;71.21;101412.78;4993853;28;20027;-68
2022/08/03 05:42:48;;;;;;;9.57;3.47;;;;;;;21.68;70.71;101418.81;4993671;28;20022;-68
2022/08/03 05:45:13;;;;;;;9.23;3.33;;;;;;;21.80;70.15;101411.31;4993396;28;20496;-68
2022/08/03 05:47:43;;;;;;;9.20;3.53;;;;;;;21.80;70.61;101420.28;4993511;28;20034;-67
2022/08/03 05:50:09;;;;;;;10.82;3.40;;;;;;;21.87;69.87;101418.31;4993758;28;20062;-68
2022/08/03 05:52:35;;;;;;;8.05;3.15;;;;;;;22.00;69.78;101431.38;4993453;28;20038;-68
2022/08/03 05:55:00;;;;;;;13.43;3.30;;;;;;;22.10;69.33;101426.66;4993529;28;20026;-68
2022/08/03 05:57:25;;;;;;;6.95;3.00;;;;;;;22.15;69.41;101430.13;4993408;28;20357;-68
2022/08/03 05:59:52;;;;;;;10.13;3.40;;;;;;;22.21;69.35;101426.38;4993577;28;20046;-69
2022/08/03 06:02:17;;;;;;;10.40;3.30;;;;;;;22.24;68.88;101424.47;4996997;28;20022;-68
2022/08/03 06:04:42;;;;;;;9.60;3.13;;;;;;;22.39;69.06;101422.25;4997103;28;20037;-68
2022/08/03 06:07:08;;;;;;;13.05;3.20;;;;;;;22.47;67.98;101423.78;4997343;28;20472;-68
2022/08/03 06:09:33;;;;;;;10.65;3.38;;;;;;;22.61;67.89;101423.41;4997278;28;20392;-68
2022/08/03 06:11:58;;;;;;;11.45;3.13;;;;;;;22.71;66.85;101419.50;4997189;28;20022;-68
2022/08/03 06:14:24;;;;;;;11.35;3.58;;;;;;;22.90;67.22;101424.34;4997375;28;20400;-68
2022/08/03 06:16:49;;;;;;;10.57;2.88;;;;;;;22.97;66.48;101417.84;4997023;28;20035;-69
2022/08/03 06:19:15;;;;;;;12.50;3.20;;;;;;;23.03;66.12;101427.53;4997055;28;20034;-68
2022/08/03 06:21:40;;;;;;;9.05;2.72;;;;;;;23.17;64.55;101419.91;4997288;28;20101;-68
2022/08/03 06:24:05;;;;;;;12.63;2.78;;;;;;;23.23;65.08;101425.09;4996715;28;20061;-68
2022/08/03 06:26:31;;;;;;;10.82;3.00;;;;;;;23.43;64.68;101428.03;4996844;28;20030;-68
2022/08/03 06:28:56;;;;;;;12.35;2.80;;;;;;;23.67;64.40;101422.75;4996958;28;20058;-68
2022/08/03 06:31:24;;;;;;;14.10;3.08;;;;;;;23.82;62.38;101427.63;4996695;28;20053;-68
2022/08/03 06:33:50;;;;;;;7.90;2.70;;;;;;;24.05;61.92;101429.50;4996530;28;20029;-68
2022/08/03 06:36:16;;;;;;;10.18;2.50;;;;;;;24.16;61.57;101424.59;4997077;28;20030;-68
2022/08/03 06:38:41;;;;;;;13.73;2.90;;;;;;;24.22;61.29;101435.16;4996831;28;20485;-68
2022/08/03 06:41:06;;;;;;;9.32;2.70;;;;;;;24.29;60.09;101432.25;4996703;28;20540;-68
2022/08/03 06:43:36;;;;;;;11.77;2.85;;;;;;;24.40;60.02;101424.66;4996661;28;20030;-67
2022/08/03 06:46:02;;;;;;;13.10;3.10;;;;;;;24.48;59.21;101433.34;4996351;28;20039;-68
2022/08/03 06:48:27;;;;;;;10.13;2.72;;;;;;;24.53;59.28;101443.97;4996603;28;20034;-68
2022/08/03 06:50:52;;;;;;;8.57;2.75;;;;;;;24.69;58.23;101442.47;4996509;28;20069;-68
2022/08/03 06:53:18;;;;;;;10.65;2.85;;;;;;;24.72;58.43;101434.25;4996400;28;20464;-68
2022/08/03 06:55:43;;;;;;;8.75;2.50;;;;;;;24.68;58.05;101436.19;4979397;28;20034;-67
2022/08/03 06:58:08;;;;;;;12.90;2.85;;;;;;;24.76;57.87;101429.59;4996427;28;20065;-68
2022/08/03 07:00:34;;;;;;;10.07;3.00;;;;;;;24.82;57.46;101432.06;4996279;28;20050;-68
2022/08/03 07:02:59;;;;;;;9.93;2.85;;;;;;;25.06;57.54;101432.91;4996171;28;20029;-68
2022/08/03 07:05:25;;;;;;;12.88;2.95;;;;;;;25.25;56.91;101436.66;4996346;28;20468;-68
2022/08/03 07:07:54;;;;;;;10.63;2.80;;;;;;;25.52;56.67;101439.16;4996253;28;20453;-68
2022/08/03 07:10:19;;;;;;;15.30;2.88;;;;;;;25.46;55.59;101437.59;4996233;28;20042;-68
2022/08/03 07:12:46;;;;;;;13.68;2.88;;;;;;;25.54;55.29;101445.41;4978024;28;20508;-68
2022/08/03 07:15:11;;;;;;;12.23;2.88;;;;;;;25.37;55.35;101448.81;4995985;28;20476;-67
2022/08/03 07:17:37;;;;;;;11.90;3.15;;;;;;;25.50;55.15;101449.16;4996067;28;20109;-67
2022/08/03 07:20:05;;;;;;;15.63;3.30;;;;;;;25.69;54.45;101442.03;4996259;28;20480;-68
2022/08/03 07:22:31;;;;;;;13.98;3.22;;;;;;;25.82;53.89;101446.00;4996171;28;20026;-68
2022/08/03 07:24:57;;;;;;;11.02;2.83;;;;;;;25.84;53.15;101445.94;4995676;28;20460;-67
2022/08/03 07:27:22;;;;;;;10.93;2.85;;;;;;;25.97;53.50;101452.59;4995799;28;20399;-67
2022/08/03 07:29:47;;;;;;;14.65;2.80;;;;;;;26.04;53.08;101455.88;4995734;28;20492;-68
2022/08/03 07:32:13;;;;;;;12.38;2.97;;;;;;;26.18;52.83;101450.75;4995854;28;20030;-68
2022/08/03 07:34:38;;;;;;;12.45;3.00;;;;;;;26.38;52.52;101460.69;4995554;28;20494;-68
2022/08/03 07:37:04;;;;;;;10.98;2.50;;;;;;;26.60;51.47;101460.63;4995707;28;20059;-68
2022/08/03 07:39:30;;;;;;;11.52;2.60;;;;;;;26.73;51.25;101458.22;4995701;28;20036;-68
2022/08/03 07:41:55;;;;;;;12.50;2.83;;;;;;;26.87;50.80;101445.75;4995846;28;20058;-68
2022/08/03 07:44:20;;;;;;;16.15;2.70;;;;;;;26.95;51.09;101451.69;4995454;28;20428;-68
2022/08/03 07:46:46;;;;;;;11.75;2.83;;;;;;;27.13;49.88;101439.09;4995447;28;20038;-68
2022/08/03 07:49:11;;;;;;;13.70;3.05;;;;;;;27.18;49.74;101453.31;4995719;28;20027;-68
2022/08/03 07:51:37;;;;;;;11.70;3.13;;;;;;;27.39;49.57;101454.09;4995489;28;20030;-68
2022/08/03 07:54:03;;;;;;;13.35;2.90;;;;;;;27.58;49.09;101451.34;4995408;28;20445;-68
2022/08/03 07:56:28;;;;;;;10.13;2.60;;;;;;;27.55;48.54;101440.66;4977822;28;20042;-69
2022/08/03 07:58:54;;;;;;;16.00;3.10;;;;;;;27.80;47.59;101445.75;4995136;28;20057;-68
2022/08/03 08:01:20;;;;;;;18.17;3.22;;;;;;;27.99;47.71;101442.06;4978097;28;20027;-68
2022/08/03 08:03:46;;;;;;;17.80;3.08;;;;;;;28.07;47.36;101443.41;4995297;28;20083;-68
2022/08/03 08:06:12;;;;;;;17.00;3.20;;;;;;;28.15;47.30;101445.72;4995471;28;20086;-68
2022/08/03 08:08:38;;;;;;;17.52;3.15;;;;;;;28.31;46.09;101443.03;4995117;28;20440;-68
2022/08/03 08:11:04;;;;;;;17.60;3.25;;;;;;;28.40;45.84;101443.47;4995139;28;20050;-68
2022/08/03 08:13:29;;;;;;;20.35;3.47;;;;;;;28.44;45.24;101452.34;4994850;28;20170;-68
2022/08/03 08:15:55;;;;;;;13.93;3.67;;;;;;;28.49;45.54;101443.94;4995122;28;20508;-68
2022/08/03 08:18:20;;;;;;;18.83;3.33;;;;;;;28.68;44.74;101448.25;4994945;28;20030;-68
2022/08/03 08:20:46;;;;;;;13.23;3.25;;;;;;;28.81;44.83;101436.69;4994925;28;20488;-68
2022/08/03 08:23:12;;;;;;;17.48;3.38;;;;;;;28.43;45.25;101440.56;4994291;28;20054;-68
2022/08/03 08:25:37;;;;;;;14.70;2.97;;;;;;;28.29;45.21;101440.41;4993758;28;20102;-68
2022/08/03 08:28:03;;;;;;;15.05;3.33;;;;;;;28.24;45.43;101444.34;4994624;28;20101;-69
2022/08/03 08:30:30;;;;;;;16.10;3.10;;;;;;;28.30;45.35;101446.72;4994661;28;20038;-69
2022/08/03 08:32:56;;;;;;;16.92;3.00;;;;;;;28.79;44.28;101444.06;4994590;28;20089;-68
2022/08/03 08:35:21;;;;;;;11.48;3.13;;;;;;;29.01;43.75;101438.34;4994824;28;20101;-68
2022/08/03 08:37:47;;;;;;;15.35;3.13;;;;;;;29.10;43.53;101435.94;4994593;28;20484;-68
2022/08/03 08:40:12;;;;;;;16.80;3.10;;;;;;;29.20;43.48;101437.16;4994638;28;20033;-68
2022/08/03 08:42:40;;;;;;;18.17;3.55;;;;;;;28.95;42.96;101431.38;4994412;28;20042;-69
2022/08/03 08:45:07;;;;;;;14.80;3.13;;;;;;;28.59;43.86;101435.16;4994576;28;20030;-67
2022/08/03 08:47:36;;;;;;;17.02;3.40;;;;;;;28.75;44.02;101431.63;4994574;28;20034;-68
2022/08/03 08:50:03;;;;;;;15.88;3.00;;;;;;;28.94;43.20;101435.03;4994582;28;20085;-69
2022/08/03 08:52:29;;;;;;;12.52;2.90;;;;;;;29.24;42.72;101434.28;4994380;28;20030;-68
2022/08/03 08:55:00;;;;;;;15.88;3.17;;;;;;;29.43;42.33;101433.13;4994313;28;20026;-68
2022/08/03 08:57:36;;;;;;;15.60;3.37;;;;;;;29.35;43.19;101426.38;4994393;28;20037;-68
2022/08/03 09:00:12;;;;;;;14.45;3.35;;;;;;;29.69;42.23;101428.00;4994377;28;20057;-68
2022/08/03 09:02:38;;;;;;;11.80;2.97;;;;;;;29.84;41.43;101432.50;4994267;28;20033;-69
2022/08/03 09:05:04;;;;;;;19.38;3.33;;;;;;;30.08;40.77;101437.44;4994143;28;20026;-67
2022/08/03 09:07:29;;;;;;;16.95;3.22;;;;;;;30.06;41.29;101439.38;4994048;28;20030;-68
2022/08/03 09:09:55;;;;;;;17.88;3.13;;;;;;;29.77;41.01;101435.72;4993963;28;20030;-68
2022/08/03 09:12:20;;;;;;;14.35;2.80;;;;;;;29.67;41.51;101435.38;4976603;28;20022;-69
2022/08/03 09:14:46;;;;;;;13.43;2.92;;;;;;;29.86;41.28;101432.44;4994010;28;20508;-68
2022/08/03 09:17:11;;;;;;;13.80;2.75;;;;;;;30.11;39.94;101431.81;4994100;28;20034;-67
2022/08/03 09:19:37;;;;;;;16.00;3.00;;;;;;;30.39;40.02;101430.97;4993787;28;20476;-68
2022/08/03 09:22:09;;;;;;;12.55;2.90;;;;;;;30.78;40.15;101426.69;4993832;28;20031;-68
2022/08/03 09:24:36;;;;;;;15.60;3.00;;;;;;;31.05;38.63;101429.47;4993632;28;20404;-68
2022/08/03 09:27:05;;;;;;;15.13;3.30;;;;;;;30.99;38.07;101428.03;4993766;28;20038;-67
2022/08/03 09:29:32;;;;;;;10.20;3.03;;;;;;;31.04;37.85;101436.78;4993919;28;20054;-68
2022/08/03 09:32:04;;;;;;;14.75;3.05;;;;;;;30.95;39.43;101434.66;4976322;28;20026;-68
2022/08/03 09:34:29;;;;;;;19.08;3.65;;;;;;;30.67;39.04;101438.28;4993581;28;20029;-68
2022/08/03 09:36:58;;;;;;;15.65;3.00;;;;;;;30.69;38.71;101431.75;4993255;28;20022;-68
2022/08/03 09:39:26;;;;;;;18.70;3.15;;;;;;;30.76;38.95;101436.84;4993588;28;20031;-68
2022/08/03 09:42:07;;;;;;;11.18;3.13;;;;;;;31.15;38.63;101426.03;4993886;28;20027;-68
2022/08/03 09:44:36;;;;;;;13.18;3.15;;;;;;;31.24;38.36;101429.13;4993895;28;20023;-68
2022/08/03 09:47:03;;;;;;;22.20;3.25;;;;;;;31.64;38.17;101428.22;4993541;28;20048;-68
2022/08/03 09:49:28;;;;;;;14.80;3.15;;;;;;;31.62;37.69;101421.13;4993477;28;20026;-68
2022/08/03 09:51:54;;;;;;;17.38;3.55;;;;;;;31.65;37.36;101427.25;4993512;28;20034;-68
2022/08/03 09:54:30;;;;;;;15.52;3.55;;;;;;;31.65;37.19;101431.84;4993854;28;20030;-68
2022/08/03 09:56:56;;;;;;;18.83;3.30;;;;;;;31.60;37.54;101431.25;4993522;28;20037;-68
2022/08/03 09:59:31;;;;;;;16.35;3.35;;;;;;;31.81;37.10;101432.50;4993479;28;20515;-68
2022/08/03 10:01:58;;;;;;;15.00;3.10;;;;;;;31.77;37.67;101436.44;4993513;28;20085;-69
2022/08/03 10:04:24;;;;;;;18.88;3.63;;;;;;;32.06;35.97;101434.44;4993139;28;20085;-69
2022/08/03 10:07:09;;;;;;;11.40;3.42;;;;;;;32.39;36.88;101422.13;4993367;28;20035;-68
2022/08/03 10:09:36;;;;;;;17.45;3.35;;;;;;;32.54;34.56;101422.88;4993555;28;20424;-68
2022/08/03 10:12:11;;;;;;;21.90;3.28;;;;;;;32.72;35.10;101427.03;4993592;28;20023;-69
2022/08/03 10:14:40;;;;;;;13.57;3.15;;;;;;;33.21;34.51;101419.78;4993274;28;20402;-68
2022/08/03 10:17:06;;;;;;;22.25;3.85;;;;;;;32.82;34.63;101425.34;4993530;28;20045;-69
2022/08/03 10:19:32;;;;;;;23.33;3.67;;;;;;;32.75;34.96;101414.97;4993185;28;20027;-68
2022/08/03 10:22:03;;;;;;;27.48;4.15;;;;;;;32.61;34.32;101425.06;4993237;28;20057;-68
2022/08/03 10:24:32;;;;;;;16.02;3.65;;;;;;;32.78;34.38;101409.28;4993048;28;20137;-69
2022/08/03 10:27:18;;;;;;;19.02;3.55;;;;;;;32.79;34.41;101413.75;4993009;28;20552;-69
2022/08/03 10:29:50;;;;;;;19.90;3.92;;;;;;;33.09;33.44;101403.28;4993190;28;20489;-68
2022/08/03 10:33:04;;;;;;;16.08;3.20;;;;;;;33.20;34.06;101412.56;4993335;28;20037;-68
2022/08/03 10:35:31;;;;;;;20.33;3.67;;;;;;;33.31;32.84;101413.47;4952259;29;20083;-69
2022/08/03 10:38:06;;;;;;;22.42;3.60;;;;;;;33.38;33.08;101405.69;4984889;28;20038;-68
2022/08/03 10:40:32;;;;;;;17.80;3.65;;;;;;;33.85;32.39;101407.50;4993200;28;20034;-68
2022/08/03 10:43:20;;;;;;;18.88;4.00;;;;;;;34.17;32.43;101403.22;4975667;28;20391;-68
2022/08/03 10:45:46;;;;;;;23.08;3.60;;;;;;;34.02;32.13;101400.72;4992895;28;20031;-69
2022/08/03 10:48:12;;;;;;;20.92;3.60;;;;;;;34.08;31.39;101392.00;4994745;28;20058;-68
2022/08/03 10:50:40;;;;;;;27.98;4.32;;;;;;;34.37;30.51;101400.63;4979184;28;20062;-69
2022/08/03 10:53:06;;;;;;;21.98;3.90;;;;;;;34.50;29.93;101389.56;4996659;28;20039;-68
2022/08/03 10:58:37;;;;;;;21.50;3.60;;;;;;;35.05;30.47;101378.66;4996396;28;20037;-69
2022/08/03 11:01:10;;;;;;;20.40;3.55;;;;;;;35.12;29.90;101383.50;4996431;28;20034;-68
2022/08/03 11:04:13;;;;;;;17.73;3.30;;;;;;;35.49;30.35;101374.00;4996196;28;20022;-69
2022/08/03 11:06:39;;;;;;;16.52;3.55;;;;;;;35.59;28.47;101374.97;4996136;28;20041;-68
2022/08/03 11:09:17;;;;;;;15.55;3.20;;;;;;;35.76;29.22;101367.97;4995094;28;20476;-68
2022/08/03 11:11:47;;;;;;;13.57;3.45;;;;;;;35.52;29.13;101373.75;4996286;28;20041;-68
2022/08/03 11:14:16;;;;;;;15.55;3.08;;;;;;;35.68;27.42;101365.94;4996659;28;20134;-69
2022/08/03 11:16:51;;;;;;;18.23;3.80;;;;;;;35.78;28.51;101363.25;4996327;28;20060;-69
2022/08/03 11:19:21;;;;;;;19.70;3.92;;;;;;;35.67;28.39;101361.41;4996136;28;20081;-68
2022/08/03 11:21:49;;;;;;;14.02;2.97;;;;;;;35.97;27.85;101363.38;4996325;28;20077;-68
2022/08/03 11:24:39;;;;;;;14.50;2.85;;;;;;;36.04;28.15;101369.22;4995832;28;20227;-68
2022/08/03 11:27:32;;;;;;;17.25;3.10;;;;;;;35.88;28.62;101366.91;4995885;28;20400;-68
2022/08/03 11:30:27;;;;;;;15.02;2.90;;;;;;;35.79;28.56;101357.59;4989408;28;20043;-68
2022/08/03 11:32:56;;;;;;;19.42;3.10;;;;;;;35.73;28.06;101366.41;4996074;28;20089;-68
2022/08/03 11:35:21;;;;;;;16.17;2.90;;;;;;;35.99;28.11;101366.00;4995794;28;20089;-67
2022/08/03 11:38:08;;;;;;;10.45;3.03;;;;;;;36.28;28.27;101368.91;4995633;28;20018;-69